Home > Products > Valid Products > TAF

000
FTUS42 KMHX 041334 AAA
TAFEWN
TAF AMD
KEWN 041334Z 0414/0512 22015G25KT P6SM SCT250
     FM041800 22015G25KT P6SM SCT030
     FM050100 20010KT 6SM BR SCT005=



000
FTUS42 KMHX 041334 AAA
TAFEWN
TAF AMD
KEWN 041334Z 0414/0512 22015G25KT P6SM SCT250
     FM041800 22015G25KT P6SM SCT030
     FM050100 20010KT 6SM BR SCT005=



000
FTUS42 KMHX 041136
TAFEWN
TAF
KEWN 041136Z 0412/0512 23014G21KT P6SM BKN007
     FM041400 22016G24KT P6SM FEW020 SCT040
     FM050100 20010KT 6SM BR SCT005=



000
FTUS42 KMHX 041136
TAFEWN
TAF
KEWN 041136Z 0412/0512 23014G21KT P6SM BKN007
     FM041400 22016G24KT P6SM FEW020 SCT040
     FM050100 20010KT 6SM BR SCT005=



000
FTUS42 KMHX 040533
TAFEWN
TAF
KEWN 040533Z 0406/0506 22009KT 3/4SM BR VV001 WS015/22040KT
     FM041330 22011G16KT P6SM BKN007
     FM041500 22015G22KT P6SM SCT040
     FM050100 20012KT 5SM BR SCT006=



000
FTUS42 KMHX 040533
TAFEWN
TAF
KEWN 040533Z 0406/0506 22009KT 3/4SM BR VV001 WS015/22040KT
     FM041330 22011G16KT P6SM BKN007
     FM041500 22015G22KT P6SM SCT040
     FM050100 20012KT 5SM BR SCT006=



000
FTUS42 KMHX 040320 AAA
TAFEWN
TAF AMD
KEWN 040320Z 0403/0424 18005KT 5SM -RADZ BR OVC003 WS020/22040KT
     FM040600 22009KT 2SM BR OVC003
     FM041430 22012G18KT P6SM SCT007 OVC015
     FM041800 22015G22KT P6SM SCT025 BKN040=



000
FTUS42 KMHX 040320 AAA
TAFEWN
TAF AMD
KEWN 040320Z 0403/0424 18005KT 5SM -RADZ BR OVC003 WS020/22040KT
     FM040600 22009KT 2SM BR OVC003
     FM041430 22012G18KT P6SM SCT007 OVC015
     FM041800 22015G22KT P6SM SCT025 BKN040=



000
FTUS42 KMHX 032359 CCA
TAFEWN
TAF COR
KEWN 032359Z 0400/0424 18005KT 5SM -RADZ SCT008 OVC015
     FM040100 18005KT 5SM -RADZ BR OVC008 WS020/22040KT
     FM040600 22009KT 2SM BR OVC004
     FM041430 22012G18KT P6SM SCT007 OVC015
     FM041800 22015G22KT P6SM SCT025 BKN040=



000
FTUS42 KMHX 032359 CCA
TAFEWN
TAF COR
KEWN 032359Z 0400/0424 18005KT 5SM -RADZ SCT008 OVC015
     FM040100 18005KT 5SM -RADZ BR OVC008 WS020/22040KT
     FM040600 22009KT 2SM BR OVC004
     FM041430 22012G18KT P6SM SCT007 OVC015
     FM041800 22015G22KT P6SM SCT025 BKN040=



000
FTUS42 KMHX 032337
TAFEWN
TAF
KEWN 032337Z 0400/0424 18005KT 5SM -RADZ BR OVC008 WS020/22040KT
     FM040600 22009KT 2SM BR OVC004
     FM041430 22012G18KT P6SM SCT007 OVC015
     FM041800 22015G22KT P6SM SCT025 BKN040=



000
FTUS42 KMHX 032337
TAFEWN
TAF
KEWN 032337Z 0400/0424 18005KT 5SM -RADZ BR OVC008 WS020/22040KT
     FM040600 22009KT 2SM BR OVC004
     FM041430 22012G18KT P6SM SCT007 OVC015
     FM041800 22015G22KT P6SM SCT025 BKN040=



000
FTUS42 KMHX 032133 AAA
TAFEWN
TAF AMD
KEWN 032133Z 0322/0418 02006KT P6SM VCSH OVC020
     FM040000 15010KT 4SM BR VCSH OVC007 WS020/22035KT
     FM040400 22010KT 3SM BR OVC004
     FM041400 23010G15KT P6SM OVC010=



000
FTUS42 KMHX 031741
TAFEWN
TAF
KEWN 031741Z 0318/0418 05005KT P6SM VCSH SCT025 OVC045
     FM032000 02006KT P6SM -RA OVC020
     FM040000 15010KT 4SM -RA BR OVC007 WS020/22035KT
     FM040400 22010KT 3SM BR OVC004
     FM041400 23010G15KT P6SM OVC010=



000
FTUS42 KMHX 031741
TAFEWN
TAF
KEWN 031741Z 0318/0418 05005KT P6SM VCSH SCT025 OVC045
     FM032000 02006KT P6SM -RA OVC020
     FM040000 15010KT 4SM -RA BR OVC007 WS020/22035KT
     FM040400 22010KT 3SM BR OVC004
     FM041400 23010G15KT P6SM OVC010=



000
FTUS42 KMHX 031137
TAFEWN
TAF
KEWN 031137Z 0312/0412 06007KT P6SM SCT025 BKN040
     FM031430 08005KT P6SM VCSH SCT010 OVC025
     FM040000 19010KT 4SM BR OVC005 WS015/22040KT=



000
FTUS42 KMHX 031137
TAFEWN
TAF
KEWN 031137Z 0312/0412 06007KT P6SM SCT025 BKN040
     FM031430 08005KT P6SM VCSH SCT010 OVC025
     FM040000 19010KT 4SM BR OVC005 WS015/22040KT=



000
FTUS42 KMHX 030541
TAFEWN
TAF
KEWN 030541Z 0306/0406 04008KT P6SM SCT025 BKN050
     FM030900 04005KT P6SM BKN025
     FM031600 08005KT P6SM VCSH SCT010 OVC020
     FM040000 18008KT 5SM BR OVC005=



000
FTUS42 KMHX 030541
TAFEWN
TAF
KEWN 030541Z 0306/0406 04008KT P6SM SCT025 BKN050
     FM030900 04005KT P6SM BKN025
     FM031600 08005KT P6SM VCSH SCT010 OVC020
     FM040000 18008KT 5SM BR OVC005=



000
FTUS42 KMHX 022323
TAFEWN
TAF
KEWN 022323Z 0300/0324 04008KT P6SM FEW050 SCT100
     FM030900 04007KT P6SM BKN050
     FM031500 07007KT P6SM SCT025 OVC035
     FM032100 12006KT P6SM OVC025=



000
FTUS42 KMHX 021725
TAFEWN
TAF
KEWN 021725Z 0218/0318 36010KT P6SM SCT250
     FM030000 04005KT P6SM SCT250
     FM030900 04005KT P6SM BKN250
     FM031100 04005KT P6SM BKN100
     FM031300 04005KT P6SM OVC050=



000
FTUS42 KMHX 021725
TAFEWN
TAF
KEWN 021725Z 0218/0318 36010KT P6SM SCT250
     FM030000 04005KT P6SM SCT250
     FM030900 04005KT P6SM BKN250
     FM031100 04005KT P6SM BKN100
     FM031300 04005KT P6SM OVC050=



000
FTUS42 KMHX 021710 AAC
TAFEWN
TAF AMD
KEWN 021710Z 0217/0312 36010KT P6SM SCT250
     FM030000 04005KT P6SM SCT250=



000
FTUS42 KMHX 021637 AAB
TAFEWN
TAF AMD
KEWN 021637Z 0217/0312 29004KT P6SM OVC007
     FM021800 36010KT P6SM SCT250
     FM030000 04005KT P6SM SCT250=



000
FTUS42 KMHX 021637 AAB
TAFEWN
TAF AMD
KEWN 021637Z 0217/0312 29004KT P6SM OVC007
     FM021800 36010KT P6SM SCT250
     FM030000 04005KT P6SM SCT250=



000
FTUS42 KMHX 021550 AAA
TAFEWN
TAF AMD
KEWN 021550Z 0216/0312 27004KT P6SM OVC005
     FM021800 36009KT P6SM SCT025 BKN050
     FM030000 04004KT P6SM SCT250=



000
FTUS42 KMHX 021550 AAA
TAFEWN
TAF AMD
KEWN 021550Z 0216/0312 27004KT P6SM OVC005
     FM021800 36009KT P6SM SCT025 BKN050
     FM030000 04004KT P6SM SCT250=



000
FTUS42 KMHX 021136
TAFEWN
TAF
KEWN 021136Z 0212/0312 24003KT 3SM BR OVC003
     FM021400 27004KT P6SM SCT005 BKN024
      TEMPO 0214/0215 6SM BR OVC005
     FM021800 36009KT P6SM SCT025 BKN050
     FM030000 04004KT P6SM SCT250=



000
FTUS42 KMHX 021136
TAFEWN
TAF
KEWN 021136Z 0212/0312 24003KT 3SM BR OVC003
     FM021400 27004KT P6SM SCT005 BKN024
      TEMPO 0214/0215 6SM BR OVC005
     FM021800 36009KT P6SM SCT025 BKN050
     FM030000 04004KT P6SM SCT250=



000
FTUS42 KMHX 020539
TAFEWN
TAF
KEWN 020539Z 0206/0306 24003KT 1/2SM FG OVC002
     FM021400 27004KT P6SM SCT006 OVC020
      TEMPO 0214/0215 3SM BR OVC005
     FM021800 36009KT P6SM SCT025 BKN050=



000
FTUS42 KMHX 020539
TAFEWN
TAF
KEWN 020539Z 0206/0306 24003KT 1/2SM FG OVC002
     FM021400 27004KT P6SM SCT006 OVC020
      TEMPO 0214/0215 3SM BR OVC005
     FM021800 36009KT P6SM SCT025 BKN050=



000
FTUS42 KMHX 012331
TAFEWN
TAF
KEWN 012331Z 0200/0224 30004KT 5SM -RADZ BKN005 OVC015
     FM020700 25003KT 3SM BR OVC005
     FM021400 30006KT P6SM SCT006 OVC025
     FM021800 35010KT P6SM SCT025 BKN050=



000
FTUS42 KMHX 012331
TAFEWN
TAF
KEWN 012331Z 0200/0224 30004KT 5SM -RADZ BKN005 OVC015
     FM020700 25003KT 3SM BR OVC005
     FM021400 30006KT P6SM SCT006 OVC025
     FM021800 35010KT P6SM SCT025 BKN050=



000
FTUS42 KMHX 012121 AAD
TAFEWN
TAF AMD
KEWN 012121Z 0121/0218 04005KT 6SM BR VCSH BKN025 OVC050
     FM012200 VRB05KT 5SM -RA OVC020
     FM020000 23005KT 4SM -RA OVC015
     FM020700 24005KT P6SM OVC030
     FM021500 30005KT P6SM OVC050=



000
FTUS42 KMHX 012008 AAC
TAFEWN
TAF AMD
KEWN 012008Z 0120/0218 04005KT P6SM VCSH SCT025 BKN035 OVC050
     FM012200 VRB05KT 5SM -RA OVC020
     FM020000 23005KT 4SM -RA OVC015
     FM020700 24005KT P6SM OVC030
     FM021500 30005KT P6SM OVC050=



000
FTUS42 KMHX 011839 AAB
TAFEWN
TAF AMD
KEWN 011839Z 0119/0218 30005KT P6SM VCSH BKN025 OVC035
     FM012000 VRB05KT 5SM -RA OVC020
     FM020000 23005KT 4SM -RA OVC015
     FM020700 24005KT P6SM OVC030
     FM021500 30005KT P6SM OVC050=



000
FTUS42 KMHX 011839 AAB
TAFEWN
TAF AMD
KEWN 011839Z 0119/0218 30005KT P6SM VCSH BKN025 OVC035
     FM012000 VRB05KT 5SM -RA OVC020
     FM020000 23005KT 4SM -RA OVC015
     FM020700 24005KT P6SM OVC030
     FM021500 30005KT P6SM OVC050=



000
FTUS42 KMHX 011814 AAA
TAFEWN
TAF AMD
KEWN 011814Z 0118/0218 30005KT P6SM VCSH BKN035 OVC040
     FM012000 VRB05KT 5SM -RA OVC020
     FM020000 23005KT 4SM -RA OVC015
     FM020700 24005KT P6SM OVC030
     FM021500 30005KT P6SM OVC050=



000
FTUS42 KMHX 011814 AAA
TAFEWN
TAF AMD
KEWN 011814Z 0118/0218 30005KT P6SM VCSH BKN035 OVC040
     FM012000 VRB05KT 5SM -RA OVC020
     FM020000 23005KT 4SM -RA OVC015
     FM020700 24005KT P6SM OVC030
     FM021500 30005KT P6SM OVC050=



000
FTUS42 KMHX 011730
TAFEWN
TAF
KEWN 011730Z 0118/0218 35005KT P6SM VCSH BKN070 BKN080
     FM012000 VRB05KT 5SM -RA OVC020
     FM020000 23005KT 4SM -RA OVC015
     FM020700 24005KT P6SM OVC030
     FM021500 30005KT P6SM OVC050=



    US Dept of Commerce
    National Oceanic and Atmospheric Administration
    National Weather Service
    1325 East West Highway
    Silver Spring, MD 20910
    Page Author: NWS Internet Services Team
Disclaimer
Information Quality
Credits
Glossary
Privacy Policy
Freedom of Information Act (FOIA)
About Us
Career Opportunities